Time;durP1;ratioP1;P1;durP2;ratioP2;P2;SDS_P1;SDS_P2;PMS_P1;PMS_P2;Temp;Humidity;BMP_temperature;BMP_pressure;BME280_temperature;BME280_humidity;BME280_pressure;Samples;Min_cycle;Max_cycle;Signal;HPM_P1;HPM_P2
2022/12/20 00:01:44;;;;;;;9.60;5.18;;;;;;;;;;5047839;28;20030;-80
2022/12/20 00:04:11;;;;;;;9.27;5.40;;;;;;;;;;5050980;28;20024;-79
2022/12/20 00:06:37;;;;;;;7.95;4.90;;;;;;;;;;5047139;28;20040;-82
2022/12/20 00:09:05;;;;;;;7.43;5.05;;;;;;;;;;5046499;28;20112;-79
2022/12/20 00:11:31;;;;;;;8.63;5.13;;;;;;;;;;5047309;28;20092;-79
2022/12/20 00:13:58;;;;;;;7.47;4.70;;;;;;;;;;5047809;28;20056;-78
2022/12/20 00:16:25;;;;;;;9.02;5.40;;;;;;;;;;5027831;28;20037;-78
2022/12/20 00:18:51;;;;;;;8.90;4.88;;;;;;;;;;5049791;28;20033;-79
2022/12/20 00:21:18;;;;;;;8.23;5.20;;;;;;;;;;5049630;28;20029;-79
2022/12/20 00:23:44;;;;;;;7.97;4.55;;;;;;;;;;5043094;28;20025;-81
2022/12/20 00:26:11;;;;;;;9.55;4.25;;;;;;;;;;5035418;28;20112;-81
2022/12/20 00:28:38;;;;;;;6.50;4.35;;;;;;;;;;5040805;28;20037;-78
2022/12/20 00:31:04;;;;;;;7.00;3.97;;;;;;;;;;5041153;28;20029;-80
2022/12/20 00:33:31;;;;;;;6.43;4.10;;;;;;;;;;5030703;28;20025;-80
2022/12/20 00:35:57;;;;;;;8.80;4.25;;;;;;;;;;5036004;28;20071;-80
2022/12/20 00:38:24;;;;;;;8.57;4.53;;;;;;;;;;5022080;28;20025;-82
2022/12/20 00:41:10;;;;;;;5.53;3.88;;;;;;;;;;5030546;28;20078;-81
2022/12/20 00:43:36;;;;;;;5.30;3.55;;;;;;;;;;5040051;28;20024;-80
2022/12/20 00:46:03;;;;;;;7.43;4.00;;;;;;;;;;5036971;28;20033;-80
2022/12/20 00:48:29;;;;;;;5.50;3.67;;;;;;;;;;5039004;28;20028;-79
2022/12/20 00:51:00;;;;;;;6.25;3.55;;;;;;;;;;5037463;28;20033;-80
2022/12/20 00:53:26;;;;;;;6.80;4.20;;;;;;;;;;5043593;28;20140;-79
2022/12/20 00:55:52;;;;;;;5.60;3.88;;;;;;;;;;5055310;28;20032;-77
2022/12/20 00:58:18;;;;;;;5.93;3.42;;;;;;;;;;5054234;28;20029;-78
2022/12/20 01:00:44;;;;;;;5.60;3.70;;;;;;;;;;5042279;28;20022;-80
2022/12/20 01:03:10;;;;;;;5.63;3.53;;;;;;;;;;5045481;28;20036;-80
2022/12/20 01:05:36;;;;;;;6.65;4.07;;;;;;;;;;5035077;28;20112;-80
2022/12/20 01:08:02;;;;;;;7.22;3.75;;;;;;;;;;5037861;28;20036;-80
2022/12/20 01:10:28;;;;;;;6.63;3.88;;;;;;;;;;5053758;28;20029;-78
2022/12/20 01:12:54;;;;;;;5.35;3.33;;;;;;;;;;5033694;28;20064;-80
2022/12/20 01:15:21;;;;;;;5.22;3.72;;;;;;;;;;5037725;28;20032;-79
2022/12/20 01:17:47;;;;;;;5.20;3.72;;;;;;;;;;5032631;28;20041;-80
2022/12/20 01:20:13;;;;;;;5.82;3.85;;;;;;;;;;5039279;28;20123;-82
2022/12/20 01:22:39;;;;;;;4.22;2.97;;;;;;;;;;5037559;28;20032;-82
2022/12/20 01:25:05;;;;;;;6.28;3.85;;;;;;;;;;5035631;28;20033;-79
2022/12/20 01:27:32;;;;;;;5.95;3.47;;;;;;;;;;5038357;28;20025;-79
2022/12/20 01:29:58;;;;;;;8.40;4.60;;;;;;;;;;5042093;28;20052;-80
2022/12/20 01:32:24;;;;;;;7.10;3.88;;;;;;;;;;5037480;28;20083;-79
2022/12/20 01:34:50;;;;;;;6.97;3.85;;;;;;;;;;5036940;28;20025;-79
2022/12/20 01:37:16;;;;;;;6.20;3.70;;;;;;;;;;5041473;28;20033;-80
2022/12/20 01:39:43;;;;;;;5.40;3.28;;;;;;;;;;5019167;28;20025;-81
2022/12/20 01:42:13;;;;;;;5.25;3.38;;;;;;;;;;5037357;28;20477;-82
2022/12/20 01:44:42;;;;;;;5.38;3.50;;;;;;;;;;5034935;28;20122;-80
2022/12/20 01:47:08;;;;;;;7.10;4.18;;;;;;;;;;5037130;28;20144;-80
2022/12/20 01:49:38;;;;;;;5.32;2.85;;;;;;;;;;5036242;28;20119;-80
2022/12/20 01:52:06;;;;;;;6.72;2.97;;;;;;;;;;5035376;28;20634;-80
2022/12/20 01:54:40;;;;;;;7.22;3.58;;;;;;;;;;5037259;28;20040;-80
2022/12/20 01:57:09;;;;;;;4.55;2.80;;;;;;;;;;5041319;28;20046;-81
2022/12/20 01:59:36;;;;;;;5.53;3.08;;;;;;;;;;5042185;28;20029;-82
2022/12/20 02:02:04;;;;;;;5.20;2.78;;;;;;;;;;5044280;28;20029;-82
2022/12/20 02:04:30;;;;;;;6.20;3.30;;;;;;;;;;5037645;28;20033;-82
2022/12/20 02:06:56;;;;;;;5.15;3.25;;;;;;;;;;5034714;28;20519;-81
2022/12/20 02:09:23;;;;;;;6.43;3.40;;;;;;;;;;5035330;28;20025;-79
2022/12/20 02:12:08;;;;;;;4.55;2.65;;;;;;;;;;5052628;28;20032;-81
2022/12/20 02:14:34;;;;;;;3.58;2.47;;;;;;;;;;5063578;23;20025;-81
2022/12/20 02:17:24;;;;;;;3.92;2.70;;;;;;;;;;5075626;28;20025;-83
2022/12/20 02:38:37;;;;;;;4.28;2.83;;;;;;;;;;4983050;28;20030;-83
2022/12/20 02:41:26;;;;;;;4.53;2.20;;;;;;;;;;4987073;28;20035;-83
2022/12/20 02:50:50;;;;;;;2.70;1.90;;;;;;;;;;4985625;28;20135;-83
2022/12/20 02:53:43;;;;;;;3.85;2.58;;;;;;;;;;4966292;28;20040;-83
2022/12/20 02:56:42;;;;;;;2.50;2.00;;;;;;;;;;4954959;29;20039;-83
2022/12/20 02:59:49;;;;;;;4.40;2.25;;;;;;;;;;4975717;28;20023;-82
2022/12/20 03:06:24;;;;;;;3.35;2.00;;;;;;;;;;4906338;29;20071;-82
2022/12/20 03:09:35;;;;;;;5.07;2.40;;;;;;;;;;4907269;29;20069;-83
2022/12/20 03:12:49;;;;;;;2.97;2.10;;;;;;;;;;4872559;29;20178;-83
2022/12/20 03:15:56;;;;;;;2.08;1.60;;;;;;;;;;4833269;29;20042;-83
2022/12/20 03:27:47;;;;;;;3.42;2.10;;;;;;;;;;4865695;29;20037;-83
2022/12/20 03:36:46;;;;;;;3.45;1.95;;;;;;;;;;4854339;29;20096;-84
2022/12/20 03:39:40;;;;;;;3.28;2.30;;;;;;;;;;4882401;29;20049;-83
2022/12/20 03:46:01;;;;;;;3.80;1.92;;;;;;;;;;4980332;28;20037;-83
2022/12/20 03:49:06;;;;;;;2.85;1.75;;;;;;;;;;4974894;28;20035;-83
2022/12/20 03:55:20;;;;;;;2.22;1.73;;;;;;;;;;5036756;28;20057;-84
2022/12/20 04:01:22;;;;;;;3.95;2.28;;;;;;;;;;4969084;28;20077;-82
2022/12/20 04:03:48;;;;;;;3.42;1.98;;;;;;;;;;5006466;28;20061;-81
2022/12/20 04:06:15;;;;;;;2.20;1.75;;;;;;;;;;5012765;28;20145;-80
2022/12/20 04:08:41;;;;;;;2.58;1.42;;;;;;;;;;5038579;28;20084;-81
2022/12/20 04:11:17;;;;;;;2.38;1.58;;;;;;;;;;5037904;28;20022;-82
2022/12/20 04:13:47;;;;;;;1.80;1.38;;;;;;;;;;5025800;28;20079;-82
2022/12/20 04:16:14;;;;;;;1.83;1.40;;;;;;;;;;5037979;28;20478;-82
2022/12/20 04:18:40;;;;;;;3.35;1.70;;;;;;;;;;5039468;28;20018;-82
2022/12/20 04:21:06;;;;;;;2.97;1.70;;;;;;;;;;5036566;28;20059;-81
2022/12/20 04:23:33;;;;;;;1.95;1.50;;;;;;;;;;5049409;28;20030;-80
2022/12/20 04:25:59;;;;;;;2.40;1.35;;;;;;;;;;5037030;28;20034;-80
2022/12/20 04:28:25;;;;;;;2.33;1.40;;;;;;;;;;5042599;28;20029;-80
2022/12/20 04:30:51;;;;;;;1.95;1.48;;;;;;;;;;5051699;28;20017;-80
2022/12/20 04:33:17;;;;;;;1.95;1.33;;;;;;;;;;5038957;28;20033;-81
2022/12/20 04:35:50;;;;;;;3.20;1.60;;;;;;;;;;5053368;28;20037;-82
2022/12/20 04:38:27;;;;;;;3.38;1.75;;;;;;;;;;5053431;28;20041;-81
2022/12/20 04:41:03;;;;;;;1.10;0.90;;;;;;;;;;5047291;28;20073;-82
2022/12/20 04:43:45;;;;;;;2.58;1.10;;;;;;;;;;5038285;28;20044;-82
2022/12/20 04:46:31;;;;;;;7.00;2.40;;;;;;;;;;5039717;28;20421;-82
2022/12/20 04:49:12;;;;;;;1.75;1.63;;;;;;;;;;5040920;28;20430;-82
2022/12/20 04:53:46;;;;;;;1.73;1.50;;;;;;;;;;5033678;28;20033;-82
2022/12/20 04:54:46;;;;;;;2.03;1.55;;;;;;;;;;5035633;28;20094;-82
2022/12/20 04:57:20;;;;;;;4.63;1.88;;;;;;;;;;5037645;28;20021;-82
2022/12/20 04:59:50;;;;;;;2.08;1.70;;;;;;;;;;5019255;28;20068;-82
2022/12/20 05:02:19;;;;;;;1.70;1.30;;;;;;;;;;5036253;28;20113;-83
2022/12/20 05:04:46;;;;;;;3.13;1.73;;;;;;;;;;5021749;28;20029;-82
2022/12/20 05:07:12;;;;;;;1.85;1.45;;;;;;;;;;5005717;28;20036;-82
2022/12/20 05:09:52;;;;;;;2.85;1.55;;;;;;;;;;5040434;28;20021;-82
2022/12/20 05:12:18;;;;;;;3.13;1.60;;;;;;;;;;5039391;28;20033;-82
2022/12/20 05:14:44;;;;;;;2.35;1.65;;;;;;;;;;5037078;28;20343;-82
2022/12/20 05:17:10;;;;;;;2.00;1.52;;;;;;;;;;5036910;28;20479;-83
2022/12/20 05:19:36;;;;;;;2.42;1.67;;;;;;;;;;5056236;28;20025;-81
2022/12/20 05:27:35;;;;;;;2.05;1.30;;;;;;;;;;5051515;28;20059;-81
2022/12/20 05:30:05;;;;;;;2.13;1.50;;;;;;;;;;5042831;28;20033;-82
2022/12/20 05:32:33;;;;;;;2.55;1.48;;;;;;;;;;5038844;28;20037;-82
2022/12/20 05:35:03;;;;;;;1.58;1.42;;;;;;;;;;5055385;28;20041;-82
2022/12/20 05:37:29;;;;;;;3.08;1.52;;;;;;;;;;5057013;28;20041;-81
2022/12/20 05:39:55;;;;;;;2.33;1.67;;;;;;;;;;5060228;28;20070;-82
2022/12/20 05:42:21;;;;;;;2.50;1.80;;;;;;;;;;5052423;28;20025;-81
2022/12/20 05:44:47;;;;;;;5.13;1.88;;;;;;;;;;5071215;28;20017;-81
2022/12/20 05:47:14;;;;;;;3.13;1.80;;;;;;;;;;5071157;28;20080;-81
2022/12/20 05:49:40;;;;;;;3.15;1.98;;;;;;;;;;5071543;28;20029;-81
2022/12/20 05:52:06;;;;;;;3.65;2.33;;;;;;;;;;5053702;28;20391;-81
2022/12/20 05:54:32;;;;;;;3.03;1.42;;;;;;;;;;5054735;28;20081;-82
2022/12/20 05:56:58;;;;;;;2.80;1.75;;;;;;;;;;5053686;28;20010;-80
2022/12/20 05:59:25;;;;;;;2.05;1.58;;;;;;;;;;5053804;28;20017;-84
2022/12/20 06:01:51;;;;;;;2.35;1.52;;;;;;;;;;5055973;28;20022;-81
2022/12/20 06:04:17;;;;;;;1.60;1.30;;;;;;;;;;5055465;28;20030;-82
2022/12/20 06:06:43;;;;;;;2.20;1.35;;;;;;;;;;5054341;28;20018;-81
2022/12/20 06:09:09;;;;;;;4.13;2.30;;;;;;;;;;5034662;28;20025;-81
2022/12/20 06:11:35;;;;;;;11.48;5.65;;;;;;;;;;5042193;28;20460;-82
2022/12/20 06:14:01;;;;;;;15.55;8.77;;;;;;;;;;5041215;28;20055;-83
2022/12/20 06:16:27;;;;;;;16.50;7.57;;;;;;;;;;5041303;28;20368;-83
2022/12/20 06:18:53;;;;;;;13.13;6.65;;;;;;;;;;5041564;28;20093;-82
2022/12/20 06:21:19;;;;;;;11.43;5.97;;;;;;;;;;5039952;28;20037;-83
2022/12/20 06:23:46;;;;;;;6.95;4.70;;;;;;;;;;5052018;28;20040;-83
2022/12/20 06:26:12;;;;;;;4.90;3.15;;;;;;;;;;5030958;28;20021;-83
2022/12/20 06:28:41;;;;;;;5.55;2.95;;;;;;;;;;5042843;28;20479;-84
2022/12/20 06:31:08;;;;;;;4.15;2.70;;;;;;;;;;5033194;28;20029;-85
2022/12/20 06:33:35;;;;;;;4.80;2.60;;;;;;;;;;5047327;28;20030;-85
2022/12/20 06:36:01;;;;;;;3.78;2.03;;;;;;;;;;5051324;28;20018;-85
2022/12/20 06:38:27;;;;;;;2.60;1.90;;;;;;;;;;5033352;28;20122;-85
2022/12/20 06:40:54;;;;;;;2.85;1.85;;;;;;;;;;5055205;28;20029;-84
2022/12/20 06:43:20;;;;;;;4.07;2.13;;;;;;;;;;5058278;28;20025;-84
2022/12/20 06:45:46;;;;;;;2.50;1.85;;;;;;;;;;5041672;28;20036;-84
2022/12/20 06:48:12;;;;;;;3.25;1.95;;;;;;;;;;5059210;28;20434;-84
2022/12/20 06:50:39;;;;;;;4.88;2.03;;;;;;;;;;5059176;28;20025;-85
2022/12/20 06:53:05;;;;;;;2.88;1.65;;;;;;;;;;5041113;28;20024;-85
2022/12/20 06:55:31;;;;;;;2.85;2.00;;;;;;;;;;5041445;28;20023;-84
2022/12/20 06:57:57;;;;;;;1.35;1.25;;;;;;;;;;5059168;28;20037;-85
2022/12/20 07:00:23;;;;;;;3.63;1.60;;;;;;;;;;5059231;28;20033;-85
2022/12/20 07:02:49;;;;;;;2.58;1.50;;;;;;;;;;5040215;28;20036;-85
2022/12/20 07:05:15;;;;;;;1.60;1.38;;;;;;;;;;5046140;28;20079;-85
2022/12/20 07:07:42;;;;;;;3.95;1.58;;;;;;;;;;5027528;28;20026;-85
2022/12/20 07:10:08;;;;;;;1.58;1.23;;;;;;;;;;5026835;28;20484;-86
2022/12/20 07:12:34;;;;;;;2.85;1.65;;;;;;;;;;5042757;28;20032;-85
2022/12/20 07:15:00;;;;;;;2.20;1.33;;;;;;;;;;5044844;28;20030;-85
2022/12/20 07:17:26;;;;;;;2.00;1.30;;;;;;;;;;5044270;28;20043;-85
2022/12/20 07:19:53;;;;;;;2.55;1.60;;;;;;;;;;5026039;28;20021;-85
2022/12/20 07:22:19;;;;;;;3.20;1.98;;;;;;;;;;5026001;28;20033;-85
2022/12/20 07:24:46;;;;;;;5.03;2.72;;;;;;;;;;5044482;28;20049;-85
2022/12/20 07:27:12;;;;;;;2.25;1.70;;;;;;;;;;5044179;28;20089;-85
2022/12/20 07:29:40;;;;;;;2.95;1.90;;;;;;;;;;5026784;28;20030;-85
2022/12/20 07:32:06;;;;;;;2.25;1.60;;;;;;;;;;5030239;28;20018;-85
2022/12/20 07:34:33;;;;;;;3.17;1.27;;;;;;;;;;5040145;28;20028;-85
2022/12/20 07:37:01;;;;;;;3.65;1.70;;;;;;;;;;5058212;28;20033;-85
2022/12/20 07:39:27;;;;;;;2.95;1.80;;;;;;;;;;5040698;28;20091;-85
2022/12/20 07:41:57;;;;;;;1.80;1.40;;;;;;;;;;5030052;28;20057;-85
2022/12/20 07:44:23;;;;;;;1.90;1.40;;;;;;;;;;5024082;28;20030;-84
2022/12/20 07:46:49;;;;;;;2.85;1.77;;;;;;;;;;5044111;28;20044;-84
2022/12/20 07:49:15;;;;;;;3.60;2.55;;;;;;;;;;5043499;28;20010;-85
2022/12/20 07:51:53;;;;;;;3.20;2.22;;;;;;;;;;5026970;28;20411;-85
2022/12/20 07:54:24;;;;;;;2.60;1.75;;;;;;;;;;5045689;28;20060;-85
2022/12/20 07:56:54;;;;;;;3.42;2.00;;;;;;;;;;5046506;28;20022;-84
2022/12/20 07:59:24;;;;;;;3.40;2.00;;;;;;;;;;5044758;28;20025;-85
2022/12/20 08:01:50;;;;;;;3.03;2.00;;;;;;;;;;5068915;28;20052;-86
2022/12/20 08:04:23;;;;;;;3.05;1.67;;;;;;;;;;5065660;28;20463;-85
2022/12/20 08:06:50;;;;;;;4.63;2.20;;;;;;;;;;5065401;28;20048;-84
2022/12/20 08:09:16;;;;;;;3.50;2.00;;;;;;;;;;5060625;28;20043;-84
2022/12/20 08:11:44;;;;;;;3.00;2.28;;;;;;;;;;5070366;28;20033;-84
2022/12/20 08:14:10;;;;;;;2.67;1.92;;;;;;;;;;5061501;28;20026;-86
2022/12/20 08:16:37;;;;;;;3.67;2.80;;;;;;;;;;5041352;28;20029;-84
2022/12/20 08:19:03;;;;;;;3.85;2.08;;;;;;;;;;5063063;28;20082;-84
2022/12/20 08:21:30;;;;;;;3.30;1.88;;;;;;;;;;5047147;28;20029;-85
2022/12/20 08:23:56;;;;;;;2.53;1.70;;;;;;;;;;5059860;28;20045;-84
2022/12/20 08:26:22;;;;;;;2.17;1.65;;;;;;;;;;5034323;28;20025;-85
2022/12/20 08:28:48;;;;;;;3.08;2.15;;;;;;;;;;5057443;28;20022;-84
2022/12/20 08:31:15;;;;;;;4.05;1.55;;;;;;;;;;5039890;28;20029;-86
2022/12/20 08:33:41;;;;;;;3.00;1.90;;;;;;;;;;5056462;28;20037;-84
2022/12/20 08:36:08;;;;;;;1.92;1.48;;;;;;;;;;5073028;28;20044;-85
2022/12/20 08:38:35;;;;;;;1.98;1.75;;;;;;;;;;5056813;28;20033;-86
2022/12/20 08:41:05;;;;;;;2.00;1.58;;;;;;;;;;5064442;28;20097;-85
2022/12/20 08:43:32;;;;;;;3.47;2.13;;;;;;;;;;5031327;28;20060;-84
2022/12/20 08:45:58;;;;;;;3.25;2.05;;;;;;;;;;5054588;28;20032;-86
2022/12/20 08:48:24;;;;;;;3.25;1.88;;;;;;;;;;5047314;28;20124;-86
2022/12/20 08:50:55;;;;;;;3.65;1.85;;;;;;;;;;5047144;28;20029;-86
2022/12/20 08:53:21;;;;;;;3.38;2.10;;;;;;;;;;5046758;28;20317;-86
2022/12/20 08:55:47;;;;;;;2.70;1.73;;;;;;;;;;5036100;28;20041;-85
2022/12/20 08:58:14;;;;;;;2.88;1.88;;;;;;;;;;5060743;28;20026;-85
2022/12/20 09:00:40;;;;;;;1.45;1.35;;;;;;;;;;5070597;28;20013;-85
2022/12/20 09:03:07;;;;;;;1.80;1.42;;;;;;;;;;5072538;28;20048;-86
2022/12/20 09:05:34;;;;;;;2.08;1.60;;;;;;;;;;5051225;28;20100;-87
2022/12/20 09:08:00;;;;;;;2.88;1.58;;;;;;;;;;5033521;28;20017;-86
2022/12/20 09:10:27;;;;;;;3.75;1.40;;;;;;;;;;5053669;28;20045;-86
2022/12/20 09:12:53;;;;;;;2.60;1.80;;;;;;;;;;5048675;28;20059;-86
2022/12/20 09:15:19;;;;;;;2.45;1.83;;;;;;;;;;5022620;28;20029;-86
2022/12/20 09:17:46;;;;;;;2.45;1.73;;;;;;;;;;5056773;28;20045;-86
2022/12/20 09:20:12;;;;;;;2.05;1.58;;;;;;;;;;5055284;28;20040;-84
2022/12/20 09:22:38;;;;;;;3.17;1.92;;;;;;;;;;5038817;28;20041;-85
2022/12/20 09:25:05;;;;;;;2.88;1.85;;;;;;;;;;5056145;28;20017;-84
2022/12/20 09:27:32;;;;;;;3.28;2.42;;;;;;;;;;5055068;28;20036;-85
2022/12/20 09:29:58;;;;;;;4.00;2.08;;;;;;;;;;5052792;28;20083;-86
2022/12/20 09:32:24;;;;;;;3.47;1.92;;;;;;;;;;5071545;28;20021;-86
2022/12/20 09:34:50;;;;;;;3.30;2.00;;;;;;;;;;5056001;28;20021;-86
2022/12/20 09:37:16;;;;;;;2.92;1.98;;;;;;;;;;5071044;28;20077;-86
2022/12/20 09:39:42;;;;;;;4.50;2.05;;;;;;;;;;5056185;28;20037;-86
2022/12/20 09:42:08;;;;;;;3.05;1.80;;;;;;;;;;5049198;28;20026;-84
2022/12/20 09:44:38;;;;;;;2.65;1.77;;;;;;;;;;5053140;28;20025;-85
2022/12/20 09:47:05;;;;;;;2.40;1.77;;;;;;;;;;5052682;28;20043;-85
2022/12/20 09:49:35;;;;;;;3.15;1.98;;;;;;;;;;5052622;28;20036;-85
2022/12/20 09:52:10;;;;;;;4.65;2.55;;;;;;;;;;5055256;28;20036;-85
2022/12/20 09:54:55;;;;;;;3.00;2.20;;;;;;;;;;5054857;28;20400;-86
2022/12/20 09:57:21;;;;;;;2.42;1.58;;;;;;;;;;5053165;28;20043;-83
2022/12/20 09:59:48;;;;;;;1.80;1.55;;;;;;;;;;5052406;28;20093;-85
2022/12/20 10:02:16;;;;;;;3.10;1.80;;;;;;;;;;5054987;28;20140;-85
2022/12/20 10:04:42;;;;;;;2.75;1.67;;;;;;;;;;5056960;28;20022;-84
2022/12/20 10:07:27;;;;;;;2.92;1.80;;;;;;;;;;5054180;28;20025;-83
2022/12/20 10:10:13;;;;;;;2.63;1.75;;;;;;;;;;5059933;28;20076;-84
2022/12/20 10:12:39;;;;;;;5.55;2.20;;;;;;;;;;5035677;28;20120;-85
2022/12/20 10:18:46;;;;;;;3.42;2.45;;;;;;;;;;4974604;28;20042;-85
2022/12/20 10:21:37;;;;;;;7.13;4.00;;;;;;;;;;5057652;28;20122;-85
2022/12/20 10:50:17;;;;;;;3.38;2.60;;;;;;;;;;5057954;28;20029;-86
2022/12/20 10:53:11;;;;;;;4.07;2.13;;;;;;;;;;5018368;28;20053;-87
2022/12/20 10:55:43;;;;;;;3.65;2.75;;;;;;;;;;5054588;28;20029;-86
2022/12/20 10:58:31;;;;;;;2.40;2.20;;;;;;;;;;5056292;28;20076;-85
2022/12/20 11:01:48;;;;;;;3.45;2.30;;;;;;;;;;5035982;28;20101;-85
2022/12/20 11:07:36;;;;;;;1.88;1.38;;;;;;;;;;5055675;28;20052;-85
2022/12/20 11:10:38;;;;;;;2.95;1.77;;;;;;;;;;5033147;28;20041;-85
2022/12/20 11:13:18;;;;;;;2.75;1.77;;;;;;;;;;4972570;29;20031;-85
2022/12/20 11:15:47;;;;;;;2.65;1.75;;;;;;;;;;5019298;28;20490;-85
2022/12/20 11:18:46;;;;;;;2.85;2.00;;;;;;;;;;5032800;28;20033;-84
2022/12/20 11:21:16;;;;;;;2.42;1.52;;;;;;;;;;5012076;28;20041;-84
2022/12/20 11:24:06;;;;;;;2.78;1.65;;;;;;;;;;5034807;28;20040;-85
2022/12/20 11:26:50;;;;;;;2.90;1.80;;;;;;;;;;5041762;28;20038;-84
2022/12/20 11:29:37;;;;;;;3.95;1.67;;;;;;;;;;5034213;28;20037;-84
2022/12/20 11:32:25;;;;;;;2.95;1.83;;;;;;;;;;5051692;28;20053;-86
2022/12/20 11:35:11;;;;;;;2.67;1.90;;;;;;;;;;5051296;28;20056;-85
2022/12/20 11:38:03;;;;;;;3.17;1.70;;;;;;;;;;5070052;28;20041;-86
2022/12/20 11:40:37;;;;;;;2.28;1.90;;;;;;;;;;5057127;28;20044;-82
2022/12/20 11:43:11;;;;;;;3.20;2.13;;;;;;;;;;5052711;28;20040;-84
2022/12/20 11:45:50;;;;;;;1.90;1.60;;;;;;;;;;5032786;28;20068;-84
2022/12/20 11:48:29;;;;;;;3.22;2.05;;;;;;;;;;5049517;28;20052;-83
2022/12/20 11:51:03;;;;;;;4.88;2.10;;;;;;;;;;5031046;28;20037;-85
2022/12/20 11:53:32;;;;;;;7.03;4.00;;;;;;;;;;5063026;28;20399;-83
2022/12/20 11:56:01;;;;;;;11.82;5.00;;;;;;;;;;5043480;28;20022;-82
2022/12/20 11:58:33;;;;;;;13.57;5.28;;;;;;;;;;5043512;28;20029;-85
2022/12/20 12:01:03;;;;;;;9.20;4.90;;;;;;;;;;5041563;28;20087;-81
2022/12/20 12:03:33;;;;;;;12.07;5.78;;;;;;;;;;5054238;28;20041;-79
2022/12/20 12:06:20;;;;;;;11.80;4.95;;;;;;;;;;5052541;28;20086;-82
2022/12/20 12:08:49;;;;;;;8.30;4.32;;;;;;;;;;5042953;28;20105;-83
2022/12/20 12:11:23;;;;;;;6.65;3.53;;;;;;;;;;5043657;28;20379;-81
2022/12/20 12:13:50;;;;;;;6.43;3.75;;;;;;;;;;5042152;28;20024;-83
2022/12/20 12:16:21;;;;;;;6.30;3.60;;;;;;;;;;5042960;28;20050;-82
2022/12/20 12:18:48;;;;;;;6.28;3.50;;;;;;;;;;5042385;28;20068;-83
2022/12/20 12:21:33;;;;;;;6.15;4.00;;;;;;;;;;5056627;28;20041;-83
2022/12/20 12:24:19;;;;;;;4.80;3.30;;;;;;;;;;5042243;28;20438;-82
2022/12/20 12:26:45;;;;;;;7.68;3.28;;;;;;;;;;5042857;28;20375;-82
2022/12/20 12:29:13;;;;;;;5.15;2.72;;;;;;;;;;5027619;28;20044;-83
2022/12/20 12:31:42;;;;;;;4.88;3.10;;;;;;;;;;5044740;28;20030;-83
2022/12/20 12:34:08;;;;;;;5.03;3.25;;;;;;;;;;5044605;28;20340;-83
2022/12/20 12:36:46;;;;;;;6.57;3.70;;;;;;;;;;5044485;28;20056;-83
2022/12/20 12:39:15;;;;;;;4.65;3.03;;;;;;;;;;5059774;28;20040;-84
2022/12/20 12:41:59;;;;;;;5.60;3.13;;;;;;;;;;5063285;28;20112;-82
2022/12/20 12:44:26;;;;;;;4.63;3.20;;;;;;;;;;5042892;28;20022;-83
2022/12/20 12:46:57;;;;;;;3.38;2.63;;;;;;;;;;5059367;28;20102;-82
2022/12/20 12:49:26;;;;;;;5.60;3.35;;;;;;;;;;5043757;28;20091;-82
2022/12/20 12:51:55;;;;;;;4.85;2.95;;;;;;;;;;5042071;28;20033;-82
2022/12/20 12:54:27;;;;;;;7.15;3.50;;;;;;;;;;5044341;28;20022;-83
2022/12/20 12:57:00;;;;;;;7.93;4.18;;;;;;;;;;5043780;28;20037;-83
2022/12/20 12:59:32;;;;;;;5.95;3.80;;;;;;;;;;5043544;28;20136;-84
2022/12/20 13:02:14;;;;;;;4.47;3.30;;;;;;;;;;5061981;28;20025;-83
2022/12/20 13:04:53;;;;;;;4.93;2.92;;;;;;;;;;5065576;28;20052;-82
2022/12/20 13:07:25;;;;;;;5.13;3.40;;;;;;;;;;5061544;28;20029;-83
2022/12/20 13:09:51;;;;;;;3.65;3.00;;;;;;;;;;5062982;28;20045;-82
2022/12/20 13:12:36;;;;;;;5.35;3.33;;;;;;;;;;5045131;28;20029;-84
2022/12/20 13:15:22;;;;;;;4.20;2.80;;;;;;;;;;5045977;28;20028;-83
2022/12/20 13:17:58;;;;;;;5.28;3.05;;;;;;;;;;5023592;28;20456;-82
2022/12/20 13:20:27;;;;;;;4.88;3.20;;;;;;;;;;5059432;28;20030;-82
2022/12/20 13:23:13;;;;;;;4.18;3.03;;;;;;;;;;5044834;28;20037;-83
2022/12/20 13:25:39;;;;;;;4.20;3.05;;;;;;;;;;5044995;28;20045;-82
2022/12/20 13:28:18;;;;;;;10.80;3.30;;;;;;;;;;5059080;28;20030;-83
2022/12/20 13:30:45;;;;;;;4.35;3.05;;;;;;;;;;5045340;28;20089;-84
2022/12/20 13:33:19;;;;;;;6.45;2.90;;;;;;;;;;5044174;28;20101;-83
2022/12/20 13:35:54;;;;;;;4.30;2.40;;;;;;;;;;5058805;28;20076;-83
2022/12/20 13:38:39;;;;;;;4.50;3.08;;;;;;;;;;5045987;28;20035;-83
2022/12/20 13:41:24;;;;;;;3.88;2.40;;;;;;;;;;5060090;28;20412;-82
2022/12/20 13:43:51;;;;;;;3.63;3.03;;;;;;;;;;5046231;28;20558;-83
2022/12/20 13:46:24;;;;;;;5.13;2.97;;;;;;;;;;5053938;28;20044;-81
2022/12/20 13:48:52;;;;;;;6.00;3.72;;;;;;;;;;5054767;28;20063;-83
2022/12/20 13:51:26;;;;;;;7.63;4.55;;;;;;;;;;5055216;28;20029;-82
2022/12/20 13:53:53;;;;;;;7.18;4.50;;;;;;;;;;5052218;28;20026;-81
2022/12/20 13:56:38;;;;;;;10.50;5.45;;;;;;;;;;5061479;28;20033;-82
2022/12/20 13:59:26;;;;;;;8.73;5.40;;;;;;;;;;5044311;28;20125;-83
2022/12/20 14:01:53;;;;;;;9.68;5.82;;;;;;;;;;5059321;28;20021;-82
2022/12/20 14:04:35;;;;;;;9.82;7.32;;;;;;;;;;5051484;28;20087;-82
2022/12/20 14:07:09;;;;;;;12.80;9.10;;;;;;;;;;5050734;28;20108;-83
2022/12/20 14:09:37;;;;;;;14.95;7.45;;;;;;;;;;5027867;28;20022;-83
2022/12/20 14:12:11;;;;;;;16.10;6.80;;;;;;;;;;5019180;28;20030;-83
2022/12/20 14:14:59;;;;;;;14.73;5.95;;;;;;;;;;5044021;28;20033;-83
2022/12/20 14:20:55;;;;;;;9.35;5.13;;;;;;;;;;5043637;28;20032;-83
2022/12/20 14:24:20;;;;;;;7.95;4.57;;;;;;;;;;5019930;28;20560;-84
2022/12/20 14:27:07;;;;;;;8.60;5.35;;;;;;;;;;5011237;28;20052;-85
2022/12/20 14:32:55;;;;;;;11.63;5.43;;;;;;;;;;5011047;28;20099;-82
2022/12/20 14:35:58;;;;;;;10.82;5.20;;;;;;;;;;5011589;28;20038;-83
2022/12/20 14:38:30;;;;;;;14.48;4.95;;;;;;;;;;5035410;28;20033;-83
2022/12/20 14:47:34;;;;;;;8.48;4.75;;;;;;;;;;5000311;28;20090;-83
2022/12/20 14:50:41;;;;;;;5.78;4.28;;;;;;;;;;5022858;28;20046;-83
2022/12/20 14:53:28;;;;;;;7.32;4.10;;;;;;;;;;5020230;28;20535;-84
2022/12/20 14:56:01;;;;;;;8.43;4.90;;;;;;;;;;5032412;28;20060;-83
2022/12/20 14:58:28;;;;;;;8.73;4.30;;;;;;;;;;5033741;28;20025;-82
2022/12/20 15:01:15;;;;;;;9.63;4.68;;;;;;;;;;5040813;28;20033;-84
2022/12/20 15:04:19;;;;;;;8.80;5.30;;;;;;;;;;5037182;28;20037;-84
2022/12/20 15:06:52;;;;;;;9.63;5.15;;;;;;;;;;5029380;28;20033;-84
2022/12/20 15:09:18;;;;;;;;;;;;;;;;;;5018982;28;20081;-83
2022/12/20 15:11:45;;;;;;;10.35;5.55;;;;;;;;;;5041200;28;19905;-83
2022/12/20 15:14:27;;;;;;;10.57;5.50;;;;;;;;;;5058457;28;20018;-84
2022/12/20 15:16:53;;;;;;;11.27;6.28;;;;;;;;;;5041563;28;20117;-84
2022/12/20 15:19:19;;;;;;;11.75;6.78;;;;;;;;;;5034116;28;20017;-83
2022/12/20 15:21:45;;;;;;;10.10;5.70;;;;;;;;;;5055028;28;20017;-84
2022/12/20 15:24:17;;;;;;;10.50;5.70;;;;;;;;;;5058016;28;20076;-84
2022/12/20 15:26:43;;;;;;;10.98;6.47;;;;;;;;;;5040721;28;20022;-83
2022/12/20 15:29:17;;;;;;;12.23;6.15;;;;;;;;;;5074748;28;20033;-84
2022/12/20 15:31:43;;;;;;;10.15;6.53;;;;;;;;;;5058775;28;20048;-82
2022/12/20 15:34:39;;;;;;;9.75;6.65;;;;;;;;;;5074221;28;20026;-82
2022/12/20 15:37:05;;;;;;;10.77;6.90;;;;;;;;;;5049375;28;20030;-82
2022/12/20 15:39:32;;;;;;;12.25;7.03;;;;;;;;;;5058084;28;20013;-81
2022/12/20 15:42:00;;;;;;;10.85;5.60;;;;;;;;;;5058278;28;20025;-82
2022/12/20 15:44:28;;;;;;;10.05;5.82;;;;;;;;;;5057353;28;20010;-81
2022/12/20 15:46:54;;;;;;;7.25;5.07;;;;;;;;;;5056907;28;20080;-81
2022/12/20 15:49:30;;;;;;;12.60;6.53;;;;;;;;;;5057777;28;20112;-82
2022/12/20 15:51:56;;;;;;;13.43;6.82;;;;;;;;;;5058067;28;20029;-82
2022/12/20 15:54:27;;;;;;;11.65;6.43;;;;;;;;;;5054486;28;20082;-83
2022/12/20 15:56:54;;;;;;;10.20;6.00;;;;;;;;;;5050773;28;20052;-83
2022/12/20 15:59:20;;;;;;;13.25;6.90;;;;;;;;;;5048186;28;20044;-84
2022/12/20 16:01:46;;;;;;;10.23;6.18;;;;;;;;;;5047645;28;20017;-83
2022/12/20 16:04:17;;;;;;;11.60;6.45;;;;;;;;;;5065028;28;20045;-83
2022/12/20 16:06:44;;;;;;;10.85;5.78;;;;;;;;;;5056557;28;20111;-82
2022/12/20 16:09:10;;;;;;;7.97;5.63;;;;;;;;;;5056224;28;20051;-81
2022/12/20 16:11:36;;;;;;;10.35;5.85;;;;;;;;;;5049237;28;20040;-81
2022/12/20 16:14:02;;;;;;;15.27;6.70;;;;;;;;;;5023522;28;20108;-85
2022/12/20 16:16:30;;;;;;;10.25;6.30;;;;;;;;;;5046150;28;20028;-81
2022/12/20 16:18:57;;;;;;;11.18;7.45;;;;;;;;;;5046804;28;20135;-83
2022/12/20 16:21:27;;;;;;;12.90;7.60;;;;;;;;;;5048480;28;20064;-82
2022/12/20 16:23:54;;;;;;;11.32;7.55;;;;;;;;;;5042173;28;20029;-82
2022/12/20 16:26:21;;;;;;;13.20;8.23;;;;;;;;;;5045313;28;20029;-84
2022/12/20 16:28:48;;;;;;;13.15;7.82;;;;;;;;;;5044117;28;20036;-83
2022/12/20 16:31:17;;;;;;;11.05;7.90;;;;;;;;;;5046603;28;20033;-84
2022/12/20 16:33:43;;;;;;;10.85;7.50;;;;;;;;;;5041793;28;20029;-83
2022/12/20 16:36:11;;;;;;;11.82;7.13;;;;;;;;;;5042792;28;20021;-83
2022/12/20 16:38:37;;;;;;;11.73;6.53;;;;;;;;;;5045531;28;20079;-85
2022/12/20 16:41:13;;;;;;;8.52;5.95;;;;;;;;;;5061783;28;20029;-84
2022/12/20 16:43:40;;;;;;;9.65;6.40;;;;;;;;;;5045516;28;20048;-83
2022/12/20 16:46:06;;;;;;;9.80;6.07;;;;;;;;;;5032185;28;20014;-84
2022/12/20 16:48:33;;;;;;;10.30;5.80;;;;;;;;;;5038769;28;20030;-84
2022/12/20 16:50:59;;;;;;;9.73;5.97;;;;;;;;;;5044288;28;20075;-84
2022/12/20 16:53:25;;;;;;;11.88;6.70;;;;;;;;;;5041813;28;20021;-82
2022/12/20 16:55:51;;;;;;;9.88;6.88;;;;;;;;;;5037032;28;20026;-84